sensor_id;sensor_type;location;lat;lon;timestamp;pressure;altitude;pressure_sealevel;temperature;humidity
14612;BME280;7392;52.078;11.650;2023-02-04T00:00:22;101720.38;;;3.05;100.00
14612;BME280;7392;52.078;11.650;2023-02-04T00:02:49;101736.13;;;3.05;100.00
14612;BME280;7392;52.078;11.650;2023-02-04T00:05:19;101739.50;;;3.02;100.00
14612;BME280;7392;52.078;11.650;2023-02-04T00:07:47;101744.66;;;2.99;100.00
14612;BME280;7392;52.078;11.650;2023-02-04T00:10:15;101753.28;;;2.96;100.00
14612;BME280;7392;52.078;11.650;2023-02-04T00:12:42;101764.53;;;2.94;100.00
14612;BME280;7392;52.078;11.650;2023-02-04T00:15:10;101765.22;;;2.90;100.00
14612;BME280;7392;52.078;11.650;2023-02-04T00:17:37;101767.63;;;2.85;100.00
14612;BME280;7392;52.078;11.650;2023-02-04T00:20:06;101774.38;;;2.80;100.00
14612;BME280;7392;52.078;11.650;2023-02-04T00:22:35;101797.03;;;2.78;100.00
14612;BME280;7392;52.078;11.650;2023-02-04T00:25:03;101801.19;;;2.73;100.00
14612;BME280;7392;52.078;11.650;2023-02-04T00:27:30;101810.63;;;2.69;100.00
14612;BME280;7392;52.078;11.650;2023-02-04T00:29:58;101828.78;;;2.65;100.00
14612;BME280;7392;52.078;11.650;2023-02-04T00:32:26;101829.47;;;2.60;100.00
14612;BME280;7392;52.078;11.650;2023-02-04T00:34:53;101841.56;;;2.57;100.00
14612;BME280;7392;52.078;11.650;2023-02-04T00:37:21;101857.94;;;2.53;100.00
14612;BME280;7392;52.078;11.650;2023-02-04T00:39:50;101869.19;;;2.50;100.00
14612;BME280;7392;52.078;11.650;2023-02-04T00:42:18;101874.38;;;2.49;100.00
14612;BME280;7392;52.078;11.650;2023-02-04T00:44:45;101883.91;;;2.47;100.00
14612;BME280;7392;52.078;11.650;2023-02-04T00:47:13;101890.88;;;2.46;100.00
14612;BME280;7392;52.078;11.650;2023-02-04T00:49:41;101910.72;;;2.41;100.00
14612;BME280;7392;52.078;11.650;2023-02-04T00:52:08;101909.59;;;2.36;100.00
14612;BME280;7392;52.078;11.650;2023-02-04T00:54:36;101916.38;;;2.32;100.00
14612;BME280;7392;52.078;11.650;2023-02-04T00:57:05;101913.56;;;2.28;100.00
14612;BME280;7392;52.078;11.650;2023-02-04T00:59:33;101924.56;;;2.20;100.00
14612;BME280;7392;52.078;11.650;2023-02-04T01:02:01;101927.75;;;2.15;100.00
14612;BME280;7392;52.078;11.650;2023-02-04T01:04:29;101935.41;;;2.10;100.00
14612;BME280;7392;52.078;11.650;2023-02-04T01:06:56;101946.53;;;2.06;100.00
14612;BME280;7392;52.078;11.650;2023-02-04T01:09:25;101956.72;;;2.00;100.00
14612;BME280;7392;52.078;11.650;2023-02-04T01:11:53;101954.66;;;1.94;100.00
14612;BME280;7392;52.078;11.650;2023-02-04T01:14:22;101972.94;;;1.93;100.00
14612;BME280;7392;52.078;11.650;2023-02-04T01:16:49;101980.63;;;1.90;100.00
14612;BME280;7392;52.078;11.650;2023-02-04T01:19:17;101979.66;;;1.87;100.00
14612;BME280;7392;52.078;11.650;2023-02-04T01:21:46;101984.00;;;1.87;100.00
14612;BME280;7392;52.078;11.650;2023-02-04T01:24:14;101993.59;;;1.86;100.00
14612;BME280;7392;52.078;11.650;2023-02-04T01:27:04;101997.00;;;1.85;100.00
14612;BME280;7392;52.078;11.650;2023-02-04T01:29:33;102004.78;;;1.84;100.00
14612;BME280;7392;52.078;11.650;2023-02-04T01:32:01;102021.34;;;1.83;100.00
14612;BME280;7392;52.078;11.650;2023-02-04T01:34:28;102025.59;;;1.81;100.00
14612;BME280;7392;52.078;11.650;2023-02-04T01:36:56;102022.97;;;1.81;100.00
14612;BME280;7392;52.078;11.650;2023-02-04T01:39:24;102037.78;;;1.80;100.00
14612;BME280;7392;52.078;11.650;2023-02-04T01:41:52;102038.69;;;1.81;100.00
14612;BME280;7392;52.078;11.650;2023-02-04T01:44:20;102043.13;;;1.82;100.00
14612;BME280;7392;52.078;11.650;2023-02-04T01:46:49;102048.28;;;1.80;100.00
14612;BME280;7392;52.078;11.650;2023-02-04T01:49:16;102056.13;;;1.80;100.00
14612;BME280;7392;52.078;11.650;2023-02-04T01:51:44;102057.03;;;1.81;100.00
14612;BME280;7392;52.078;11.650;2023-02-04T01:54:13;102070.13;;;1.81;100.00
14612;BME280;7392;52.078;11.650;2023-02-04T01:56:45;102085.03;;;1.82;100.00
14612;BME280;7392;52.078;11.650;2023-02-04T01:59:15;102089.31;;;1.80;100.00
14612;BME280;7392;52.078;11.650;2023-02-04T02:01:44;102090.03;;;1.77;100.00
14612;BME280;7392;52.078;11.650;2023-02-04T02:04:15;102103.97;;;1.76;100.00
14612;BME280;7392;52.078;11.650;2023-02-04T02:06:47;102109.13;;;1.75;100.00
14612;BME280;7392;52.078;11.650;2023-02-04T02:09:15;102119.59;;;1.75;100.00
14612;BME280;7392;52.078;11.650;2023-02-04T02:11:43;102130.00;;;1.73;100.00
14612;BME280;7392;52.078;11.650;2023-02-04T02:14:11;102130.69;;;1.71;100.00
14612;BME280;7392;52.078;11.650;2023-02-04T02:16:39;102134.88;;;1.67;100.00
14612;BME280;7392;52.078;11.650;2023-02-04T02:19:09;102140.94;;;1.66;100.00
14612;BME280;7392;52.078;11.650;2023-02-04T02:21:44;102155.59;;;1.62;100.00
14612;BME280;7392;52.078;11.650;2023-02-04T02:24:26;102156.22;;;1.58;100.00
14612;BME280;7392;52.078;11.650;2023-02-04T02:26:56;102162.19;;;1.56;100.00
14612;BME280;7392;52.078;11.650;2023-02-04T02:29:26;102165.63;;;1.55;100.00
14612;BME280;7392;52.078;11.650;2023-02-04T02:31:54;102162.91;;;1.53;100.00
14612;BME280;7392;52.078;11.650;2023-02-04T02:34:25;102180.25;;;1.51;100.00
14612;BME280;7392;52.078;11.650;2023-02-04T02:36:54;102190.66;;;1.49;100.00
14612;BME280;7392;52.078;11.650;2023-02-04T02:39:22;102189.84;;;1.51;100.00
14612;BME280;7392;52.078;11.650;2023-02-04T02:41:53;102184.41;;;1.47;100.00
14612;BME280;7392;52.078;11.650;2023-02-04T02:44:21;102198.31;;;1.46;100.00
14612;BME280;7392;52.078;11.650;2023-02-04T02:46:49;102199.06;;;1.44;100.00
14612;BME280;7392;52.078;11.650;2023-02-04T02:49:18;102203.38;;;1.43;100.00
14612;BME280;7392;52.078;11.650;2023-02-04T02:51:46;102206.00;;;1.43;100.00
14612;BME280;7392;52.078;11.650;2023-02-04T02:54:19;102215.66;;;1.44;100.00
14612;BME280;7392;52.078;11.650;2023-02-04T02:56:49;102226.13;;;1.44;100.00
14612;BME280;7392;52.078;11.650;2023-02-04T02:59:19;102222.63;;;1.44;100.00
14612;BME280;7392;52.078;11.650;2023-02-04T03:01:48;102226.03;;;1.43;100.00
14612;BME280;7392;52.078;11.650;2023-02-04T03:04:21;102236.53;;;1.43;100.00
14612;BME280;7392;52.078;11.650;2023-02-04T03:06:49;102238.25;;;1.42;100.00
14612;BME280;7392;52.078;11.650;2023-02-04T03:09:18;102246.09;;;1.42;100.00
14612;BME280;7392;52.078;11.650;2023-02-04T03:11:46;102257.47;;;1.43;100.00
14612;BME280;7392;52.078;11.650;2023-02-04T03:14:14;102260.97;;;1.43;100.00
14612;BME280;7392;52.078;11.650;2023-02-04T03:16:44;102268.94;;;1.45;100.00
14612;BME280;7392;52.078;11.650;2023-02-04T03:19:13;102270.66;;;1.44;100.00
14612;BME280;7392;52.078;11.650;2023-02-04T03:21:41;102277.72;;;1.45;100.00
14612;BME280;7392;52.078;11.650;2023-02-04T03:24:09;102281.22;;;1.46;100.00
14612;BME280;7392;52.078;11.650;2023-02-04T03:26:37;102282.13;;;1.46;100.00
14612;BME280;7392;52.078;11.650;2023-02-04T03:29:06;102289.19;;;1.47;100.00
14612;BME280;7392;52.078;11.650;2023-02-04T03:31:34;102295.31;;;1.48;100.00
14612;BME280;7392;52.078;11.650;2023-02-04T03:34:04;102309.25;;;1.47;100.00
14612;BME280;7392;52.078;11.650;2023-02-04T03:36:32;102317.09;;;1.47;100.00
14612;BME280;7392;52.078;11.650;2023-02-04T03:38:59;102319.72;;;1.47;100.00
14612;BME280;7392;52.078;11.650;2023-02-04T03:41:28;102330.19;;;1.47;100.00
14612;BME280;7392;52.078;11.650;2023-02-04T03:43:55;102337.13;;;1.46;100.00
14612;BME280;7392;52.078;11.650;2023-02-04T03:46:23;102343.34;;;1.48;100.00
14612;BME280;7392;52.078;11.650;2023-02-04T03:48:51;102346.81;;;1.47;100.00
14612;BME280;7392;52.078;11.650;2023-02-04T03:51:20;102360.69;;;1.46;100.00
14612;BME280;7392;52.078;11.650;2023-02-04T03:53:48;102362.50;;;1.47;100.00
14612;BME280;7392;52.078;11.650;2023-02-04T03:56:15;102370.38;;;1.47;100.00
14612;BME280;7392;52.078;11.650;2023-02-04T03:58:43;102366.88;;;1.47;100.00
14612;BME280;7392;52.078;11.650;2023-02-04T04:01:11;102381.53;;;1.45;100.00
14612;BME280;7392;52.078;11.650;2023-02-04T04:03:38;102397.16;;;1.43;100.00
14612;BME280;7392;52.078;11.650;2023-02-04T04:06:06;102392.66;;;1.41;100.00
14612;BME280;7392;52.078;11.650;2023-02-04T04:08:37;102408.19;;;1.38;100.00
14612;BME280;7392;52.078;11.650;2023-02-04T04:11:05;102406.28;;;1.35;100.00
14612;BME280;7392;52.078;11.650;2023-02-04T04:13:32;102417.47;;;1.33;100.00
14612;BME280;7392;52.078;11.650;2023-02-04T04:16:00;102411.13;;;1.29;100.00
14612;BME280;7392;52.078;11.650;2023-02-04T04:18:28;102407.44;;;1.25;100.00
14612;BME280;7392;52.078;11.650;2023-02-04T04:20:56;102425.56;;;1.22;100.00
14612;BME280;7392;52.078;11.650;2023-02-04T04:23:24;102427.88;;;1.18;100.00
14612;BME280;7392;52.078;11.650;2023-02-04T04:25:53;102429.31;;;1.12;100.00
14612;BME280;7392;52.078;11.650;2023-02-04T04:28:20;102427.31;;;1.08;100.00
14612;BME280;7392;52.078;11.650;2023-02-04T04:30:48;102436.59;;;1.03;100.00
14612;BME280;7392;52.078;11.650;2023-02-04T04:33:16;102446.84;;;1.00;100.00
14612;BME280;7392;52.078;11.650;2023-02-04T04:35:43;102450.09;;;0.96;100.00
14612;BME280;7392;52.078;11.650;2023-02-04T04:38:11;102453.41;;;0.93;100.00
14612;BME280;7392;52.078;11.650;2023-02-04T04:40:39;102464.41;;;0.88;100.00
14612;BME280;7392;52.078;11.650;2023-02-04T04:43:08;102478.16;;;0.85;100.00
14612;BME280;7392;52.078;11.650;2023-02-04T04:45:35;102477.06;;;0.82;100.00
14612;BME280;7392;52.078;11.650;2023-02-04T04:48:03;102480.41;;;0.79;100.00
14612;BME280;7392;52.078;11.650;2023-02-04T04:50:31;102479.31;;;0.76;100.00
14612;BME280;7392;52.078;11.650;2023-02-04T04:52:59;102480.94;;;0.73;100.00
14612;BME280;7392;52.078;11.650;2023-02-04T04:55:27;102499.13;;;0.72;100.00
14612;BME280;7392;52.078;11.650;2023-02-04T04:57:55;102497.09;;;0.68;100.00
14612;BME280;7392;52.078;11.650;2023-02-04T05:00:24;102500.34;;;0.64;100.00
14612;BME280;7392;52.078;11.650;2023-02-04T05:02:52;102513.19;;;0.61;100.00
14612;BME280;7392;52.078;11.650;2023-02-04T05:05:19;102516.44;;;0.57;100.00
14612;BME280;7392;52.078;11.650;2023-02-04T05:07:47;102530.19;;;0.54;100.00
14612;BME280;7392;52.078;11.650;2023-02-04T05:10:16;102528.97;;;0.49;100.00
14612;BME280;7392;52.078;11.650;2023-02-04T05:12:43;102533.09;;;0.45;100.00
14612;BME280;7392;52.078;11.650;2023-02-04T05:15:11;102550.19;;;0.40;100.00
14612;BME280;7392;52.078;11.650;2023-02-04T05:17:40;102552.59;;;0.37;100.00
14612;BME280;7392;52.078;11.650;2023-02-04T05:20:08;102554.97;;;0.34;100.00
14612;BME280;7392;52.078;11.650;2023-02-04T05:22:36;102558.31;;;0.31;100.00
14612;BME280;7392;52.078;11.650;2023-02-04T05:25:04;102557.19;;;0.28;100.00
14612;BME280;7392;52.078;11.650;2023-02-04T05:27:32;102568.34;;;0.25;100.00
14612;BME280;7392;52.078;11.650;2023-02-04T05:30:00;102568.13;;;0.22;100.00
14612;BME280;7392;52.078;11.650;2023-02-04T05:32:27;102581.13;;;0.21;100.00
14612;BME280;7392;52.078;11.650;2023-02-04T05:34:56;102584.28;;;0.16;100.00
14612;BME280;7392;52.078;11.650;2023-02-04T05:37:24;102588.41;;;0.13;100.00
14612;BME280;7392;52.078;11.650;2023-02-04T05:39:52;102593.41;;;0.10;100.00
14612;BME280;7392;52.078;11.650;2023-02-04T05:42:20;102593.19;;;0.07;100.00
14612;BME280;7392;52.078;11.650;2023-02-04T05:44:47;102599.91;;;0.03;100.00
14612;BME280;7392;52.078;11.650;2023-02-04T05:47:15;102600.50;;;-0.01;100.00
14612;BME280;7392;52.078;11.650;2023-02-04T05:49:44;102597.69;;;-0.04;100.00
14612;BME280;7392;52.078;11.650;2023-02-04T05:52:13;102598.38;;;-0.07;100.00
14612;BME280;7392;52.078;11.650;2023-02-04T05:54:40;102614.75;;;-0.09;100.00
14612;BME280;7392;52.078;11.650;2023-02-04T05:57:08;102612.72;;;-0.13;100.00
14612;BME280;7392;52.078;11.650;2023-02-04T05:59:36;102604.66;;;-0.16;100.00
14612;BME280;7392;52.078;11.650;2023-02-04T06:02:03;102609.66;;;-0.20;100.00
14612;BME280;7392;52.078;11.650;2023-02-04T06:04:31;102619.88;;;-0.23;100.00
14612;BME280;7392;52.078;11.650;2023-02-04T06:06:59;102620.47;;;-0.27;100.00
14612;BME280;7392;52.078;11.650;2023-02-04T06:09:28;102622.75;;;-0.31;100.00
14612;BME280;7392;52.078;11.650;2023-02-04T06:11:56;102627.75;;;-0.34;100.00
14612;BME280;7392;52.078;11.650;2023-02-04T06:14:23;102632.78;;;-0.38;100.00
14612;BME280;7392;52.078;11.650;2023-02-04T06:16:51;102634.34;;;-0.40;100.00
14612;BME280;7392;52.078;11.650;2023-02-04T06:19:19;102631.41;;;-0.44;100.00
14612;BME280;7392;52.078;11.650;2023-02-04T06:21:47;102639.81;;;-0.48;100.00
14612;BME280;7392;52.078;11.650;2023-02-04T06:24:14;102634.34;;;-0.51;100.00
14612;BME280;7392;52.078;11.650;2023-02-04T06:26:43;102637.56;;;-0.55;100.00
14612;BME280;7392;52.078;11.650;2023-02-04T06:29:11;102642.53;;;-0.59;100.00
14612;BME280;7392;52.078;11.650;2023-02-04T06:31:39;102653.69;;;-0.61;100.00
14612;BME280;7392;52.078;11.650;2023-02-04T06:34:06;102648.22;;;-0.64;100.00
14612;BME280;7392;52.078;11.650;2023-02-04T06:36:34;102664.56;;;-0.67;100.00
14612;BME280;7392;52.078;11.650;2023-02-04T06:39:02;102660.03;;;-0.69;100.00
14612;BME280;7392;52.078;11.650;2023-02-04T06:41:30;102674.56;;;-0.73;100.00
14612;BME280;7392;52.078;11.650;2023-02-04T06:43:59;102677.06;;;-0.74;100.00
14612;BME280;7392;52.078;11.650;2023-02-04T06:46:26;102685.66;;;-0.76;100.00
14612;BME280;7392;52.078;11.650;2023-02-04T06:48:54;102688.97;;;-0.78;100.00
14612;BME280;7392;52.078;11.650;2023-02-04T06:51:22;102684.41;;;-0.81;100.00
14612;BME280;7392;52.078;11.650;2023-02-04T06:53:50;102698.28;;;-0.82;100.00
14612;BME280;7392;52.078;11.650;2023-02-04T06:56:18;102706.00;;;-0.83;100.00
14612;BME280;7392;52.078;11.650;2023-02-04T06:58:45;102711.09;;;-0.85;100.00
14612;BME280;7392;52.078;11.650;2023-02-04T07:01:14;102710.97;;;-0.86;100.00
14612;BME280;7392;52.078;11.650;2023-02-04T07:03:42;102718.56;;;-0.89;100.00
14612;BME280;7392;52.078;11.650;2023-02-04T07:06:09;102722.06;;;-0.89;100.00
14612;BME280;7392;52.078;11.650;2023-02-04T07:08:37;102722.00;;;-0.90;100.00
14612;BME280;7392;52.078;11.650;2023-02-04T07:11:05;102733.22;;;-0.91;100.00
14612;BME280;7392;52.078;11.650;2023-02-04T07:13:33;102747.97;;;-0.92;100.00
14612;BME280;7392;52.078;11.650;2023-02-04T07:16:01;102751.47;;;-0.91;100.00
14612;BME280;7392;52.078;11.650;2023-02-04T07:18:30;102754.84;;;-0.92;100.00
14612;BME280;7392;52.078;11.650;2023-02-04T07:20:58;102761.00;;;-0.92;100.00
14612;BME280;7392;52.078;11.650;2023-02-04T07:23:25;102762.03;;;-0.90;100.00
14612;BME280;7392;52.078;11.650;2023-02-04T07:25:53;102758.59;;;-0.89;100.00
14612;BME280;7392;52.078;11.650;2023-02-04T07:28:22;102768.38;;;-0.86;100.00
14612;BME280;7392;52.078;11.650;2023-02-04T07:30:50;102772.59;;;-0.88;100.00
14612;BME280;7392;52.078;11.650;2023-02-04T07:33:18;102771.00;;;-0.86;100.00
14612;BME280;7392;52.078;11.650;2023-02-04T07:35:47;102769.28;;;-0.86;100.00
14612;BME280;7392;52.078;11.650;2023-02-04T07:38:15;102777.25;;;-0.84;100.00
14612;BME280;7392;52.078;11.650;2023-02-04T07:40:42;102785.06;;;-0.84;100.00
14612;BME280;7392;52.078;11.650;2023-02-04T07:43:10;102774.63;;;-0.84;100.00
14612;BME280;7392;52.078;11.650;2023-02-04T07:45:38;102786.09;;;-0.82;100.00
14612;BME280;7392;52.078;11.650;2023-02-04T07:48:06;102788.03;;;-0.80;100.00
14612;BME280;7392;52.078;11.650;2023-02-04T07:50:33;102791.66;;;-0.78;100.00
14612;BME280;7392;52.078;11.650;2023-02-04T07:53:02;102787.47;;;-0.76;100.00
14612;BME280;7392;52.078;11.650;2023-02-04T07:55:30;102803.25;;;-0.74;100.00
14612;BME280;7392;52.078;11.650;2023-02-04T07:57:58;102810.41;;;-0.71;100.00
14612;BME280;7392;52.078;11.650;2023-02-04T08:00:26;102814.94;;;-0.69;100.00
14612;BME280;7392;52.078;11.650;2023-02-04T08:02:54;102826.53;;;-0.65;100.00
14612;BME280;7392;52.078;11.650;2023-02-04T08:05:21;102825.06;;;-0.62;100.00
14612;BME280;7392;52.078;11.650;2023-02-04T08:07:49;102828.03;;;-0.57;100.00
14612;BME280;7392;52.078;11.650;2023-02-04T08:10:18;102831.91;;;-0.52;100.00
14612;BME280;7392;52.078;11.650;2023-02-04T08:12:46;102831.38;;;-0.48;100.00
14612;BME280;7392;52.078;11.650;2023-02-04T08:15:14;102838.50;;;-0.45;100.00
14612;BME280;7392;52.078;11.650;2023-02-04T08:17:42;102841.34;;;-0.42;100.00
14612;BME280;7392;52.078;11.650;2023-02-04T08:20:10;102843.38;;;-0.38;100.00
14612;BME280;7392;52.078;11.650;2023-02-04T08:22:38;102846.25;;;-0.35;100.00
14612;BME280;7392;52.078;11.650;2023-02-04T08:25:06;102855.34;;;-0.30;100.00
14612;BME280;7392;52.078;11.650;2023-02-04T08:27:36;102850.22;;;-0.28;100.00
14612;BME280;7392;52.078;11.650;2023-02-04T08:30:05;102844.44;;;-0.24;100.00
14612;BME280;7392;52.078;11.650;2023-02-04T08:32:33;102856.94;;;-0.20;100.00
14612;BME280;7392;52.078;11.650;2023-02-04T08:35:01;102859.78;;;-0.17;100.00
14612;BME280;7392;52.078;11.650;2023-02-04T08:37:31;102855.69;;;-0.13;100.00
14612;BME280;7392;52.078;11.650;2023-02-04T08:39:59;102850.78;;;-0.09;100.00
14612;BME280;7392;52.078;11.650;2023-02-04T08:42:27;102857.06;;;-0.07;100.00
14612;BME280;7392;52.078;11.650;2023-02-04T08:44:56;102859.88;;;-0.04;100.00
14612;BME280;7392;52.078;11.650;2023-02-04T08:47:23;102870.69;;;0.01;100.00
14612;BME280;7392;52.078;11.650;2023-02-04T08:49:51;102866.59;;;0.05;100.00
14612;BME280;7392;52.078;11.650;2023-02-04T08:52:19;102865.94;;;0.07;100.00
14612;BME280;7392;52.078;11.650;2023-02-04T08:54:46;102875.81;;;0.11;100.00
14612;BME280;7392;52.078;11.650;2023-02-04T08:57:14;102875.25;;;0.15;100.00
14612;BME280;7392;52.078;11.650;2023-02-04T08:59:41;102881.81;;;0.22;100.00
14612;BME280;7392;52.078;11.650;2023-02-04T09:02:12;102880.69;;;0.30;100.00
14612;BME280;7392;52.078;11.650;2023-02-04T09:04:40;102886.38;;;0.36;100.00
14612;BME280;7392;52.078;11.650;2023-02-04T09:07:07;102888.06;;;0.48;100.00
14612;BME280;7392;52.078;11.650;2023-02-04T09:09:35;102894.88;;;0.58;100.00
14612;BME280;7392;52.078;11.650;2023-02-04T09:12:03;102894.19;;;0.72;100.00
14612;BME280;7392;52.078;11.650;2023-02-04T09:14:30;102898.78;;;0.88;100.00
14612;BME280;7392;52.078;11.650;2023-02-04T09:16:58;102899.19;;;1.06;100.00
14612;BME280;7392;52.078;11.650;2023-02-04T09:19:27;102905.81;;;1.26;100.00
14612;BME280;7392;52.078;11.650;2023-02-04T09:21:55;102904.59;;;1.46;100.00
14612;BME280;7392;52.078;11.650;2023-02-04T09:24:23;102905.06;;;1.65;100.00
14612;BME280;7392;52.078;11.650;2023-02-04T09:26:50;102898.34;;;1.82;100.00
14612;BME280;7392;52.078;11.650;2023-02-04T09:29:18;102909.16;;;2.00;100.00
14612;BME280;7392;52.078;11.650;2023-02-04T09:31:46;102912.91;;;2.17;100.00
14612;BME280;7392;52.078;11.650;2023-02-04T09:34:14;102921.91;;;2.34;100.00
14612;BME280;7392;52.078;11.650;2023-02-04T09:36:43;102916.16;;;2.53;100.00
14612;BME280;7392;52.078;11.650;2023-02-04T09:39:11;102925.38;;;2.75;100.00
14612;BME280;7392;52.078;11.650;2023-02-04T09:41:39;102930.03;;;2.92;100.00
14612;BME280;7392;52.078;11.650;2023-02-04T09:44:14;102924.22;;;3.11;100.00
14612;BME280;7392;52.078;11.650;2023-02-04T09:46:46;102934.94;;;3.29;100.00
14612;BME280;7392;52.078;11.650;2023-02-04T09:49:14;102933.47;;;3.48;100.00
14612;BME280;7392;52.078;11.650;2023-02-04T09:51:44;102930.88;;;3.63;100.00
14612;BME280;7392;52.078;11.650;2023-02-04T09:54:15;102935.22;;;3.77;100.00
14612;BME280;7392;52.078;11.650;2023-02-04T09:56:44;102937.97;;;3.93;100.00
14612;BME280;7392;52.078;11.650;2023-02-04T09:59:13;102937.34;;;4.12;100.00
14612;BME280;7392;52.078;11.650;2023-02-04T10:01:41;102947.31;;;4.33;100.00
14612;BME280;7392;52.078;11.650;2023-02-04T10:04:12;102954.72;;;4.55;100.00
14612;BME280;7392;52.078;11.650;2023-02-04T10:06:41;102940.78;;;4.73;100.00
14612;BME280;7392;52.078;11.650;2023-02-04T10:09:11;102943.56;;;4.91;100.00
14612;BME280;7392;52.078;11.650;2023-02-04T10:11:40;102953.22;;;5.06;100.00
14612;BME280;7392;52.078;11.650;2023-02-04T10:14:11;102951.44;;;5.22;100.00
14612;BME280;7392;52.078;11.650;2023-02-04T10:16:41;102958.38;;;5.36;100.00
14612;BME280;7392;52.078;11.650;2023-02-04T10:19:12;102949.63;;;5.54;99.53
14612;BME280;7392;52.078;11.650;2023-02-04T10:21:42;102950.53;;;5.71;98.25
14612;BME280;7392;52.078;11.650;2023-02-04T10:24:14;102951.25;;;5.85;96.73
14612;BME280;7392;52.078;11.650;2023-02-04T10:26:42;102953.75;;;5.98;95.33
14612;BME280;7392;52.078;11.650;2023-02-04T10:29:14;102949.38;;;5.98;93.53
14612;BME280;7392;52.078;11.650;2023-02-04T10:31:44;102950.59;;;6.05;90.24
14612;BME280;7392;52.078;11.650;2023-02-04T10:34:14;102958.22;;;6.17;91.15
14612;BME280;7392;52.078;11.650;2023-02-04T10:36:46;102958.69;;;6.26;90.02
14612;BME280;7392;52.078;11.650;2023-02-04T10:39:18;102961.84;;;6.37;89.45
14612;BME280;7392;52.078;11.650;2023-02-04T10:41:47;102965.94;;;6.48;88.82
14612;BME280;7392;52.078;11.650;2023-02-04T10:44:17;102963.97;;;6.62;88.37
14612;BME280;7392;52.078;11.650;2023-02-04T10:46:46;102959.38;;;6.76;87.87
14612;BME280;7392;52.078;11.650;2023-02-04T10:49:17;102973.31;;;6.91;87.33
14612;BME280;7392;52.078;11.650;2023-02-04T10:51:45;102963.13;;;6.99;86.36
14612;BME280;7392;52.078;11.650;2023-02-04T10:54:17;102963.22;;;7.01;85.52
14612;BME280;7392;52.078;11.650;2023-02-04T10:56:59;102964.72;;;6.96;83.15
14612;BME280;7392;52.078;11.650;2023-02-04T10:59:27;102973.78;;;7.01;83.07
14612;BME280;7392;52.078;11.650;2023-02-04T11:01:56;102966.13;;;7.07;83.07
14612;BME280;7392;52.078;11.650;2023-02-04T11:04:26;102961.38;;;7.18;83.11
14612;BME280;7392;52.078;11.650;2023-02-04T11:06:54;102965.19;;;7.24;82.16
14612;BME280;7392;52.078;11.650;2023-02-04T11:09:23;102971.88;;;7.36;81.91
14612;BME280;7392;52.078;11.650;2023-02-04T11:11:51;102969.69;;;7.45;80.35
14612;BME280;7392;52.078;11.650;2023-02-04T11:14:25;102975.16;;;7.49;79.54
14612;BME280;7392;52.078;11.650;2023-02-04T11:16:54;102973.97;;;7.62;79.81
14612;BME280;7392;52.078;11.650;2023-02-04T11:19:35;102979.81;;;7.75;78.81
14612;BME280;7392;52.078;11.650;2023-02-04T11:22:05;102982.25;;;7.70;77.81
14612;BME280;7392;52.078;11.650;2023-02-04T11:24:35;102985.88;;;7.53;75.77
14612;BME280;7392;52.078;11.650;2023-02-04T11:27:16;102983.78;;;7.45;75.44
14612;BME280;7392;52.078;11.650;2023-02-04T11:29:45;102977.59;;;7.45;74.69
14612;BME280;7392;52.078;11.650;2023-02-04T11:32:29;102977.94;;;7.33;74.33
14612;BME280;7392;52.078;11.650;2023-02-04T11:35:22;102991.41;;;7.20;74.38
14612;BME280;7392;52.078;11.650;2023-02-04T11:37:50;102984.53;;;7.05;75.01
14612;BME280;7392;52.078;11.650;2023-02-04T11:40:28;102992.19;;;6.99;75.68
14612;BME280;7392;52.078;11.650;2023-02-04T11:43:01;102996.13;;;6.89;75.47
14612;BME280;7392;52.078;11.650;2023-02-04T11:45:31;103004.56;;;6.64;73.06
14612;BME280;7392;52.078;11.650;2023-02-04T11:48:02;103006.53;;;6.50;74.79
14612;BME280;7392;52.078;11.650;2023-02-04T11:50:32;103005.00;;;6.38;72.88
14612;BME280;7392;52.078;11.650;2023-02-04T11:53:00;103006.28;;;6.28;73.83
14612;BME280;7392;52.078;11.650;2023-02-04T11:55:33;102999.84;;;6.23;74.41
14612;BME280;7392;52.078;11.650;2023-02-04T11:58:01;103007.53;;;6.18;73.99
14612;BME280;7392;52.078;11.650;2023-02-04T12:00:31;103009.25;;;6.17;74.77
14612;BME280;7392;52.078;11.650;2023-02-04T12:03:00;103009.69;;;6.09;73.09
14612;BME280;7392;52.078;11.650;2023-02-04T12:05:37;103000.63;;;6.04;74.63
14612;BME280;7392;52.078;11.650;2023-02-04T12:08:11;103002.38;;;6.03;75.83
14612;BME280;7392;52.078;11.650;2023-02-04T12:10:47;103003.28;;;6.04;76.27
14612;BME280;7392;52.078;11.650;2023-02-04T12:13:16;103004.84;;;6.00;76.07
14612;BME280;7392;52.078;11.650;2023-02-04T12:15:53;103010.13;;;6.00;76.42
14612;BME280;7392;52.078;11.650;2023-02-04T12:18:22;103008.38;;;6.01;77.14
14612;BME280;7392;52.078;11.650;2023-02-04T12:20:49;103014.44;;;5.98;77.14
14612;BME280;7392;52.078;11.650;2023-02-04T12:23:17;103018.59;;;5.94;77.16
14612;BME280;7392;52.078;11.650;2023-02-04T12:25:46;103015.78;;;5.91;77.24
14612;BME280;7392;52.078;11.650;2023-02-04T12:28:14;103018.25;;;5.88;77.42
14612;BME280;7392;52.078;11.650;2023-02-04T12:30:41;103014.47;;;5.83;76.97
14612;BME280;7392;52.078;11.650;2023-02-04T12:33:09;103022.13;;;5.78;77.74
14612;BME280;7392;52.078;11.650;2023-02-04T12:35:40;103022.88;;;5.76;78.40
14612;BME280;7392;52.078;11.650;2023-02-04T12:38:09;103024.38;;;5.71;77.88
14612;BME280;7392;52.078;11.650;2023-02-04T12:40:37;103026.00;;;5.69;77.55
14612;BME280;7392;52.078;11.650;2023-02-04T12:43:06;103027.34;;;5.60;77.07
14612;BME280;7392;52.078;11.650;2023-02-04T12:45:33;103027.81;;;5.53;77.00
14612;BME280;7392;52.078;11.650;2023-02-04T12:48:01;103023.78;;;5.43;76.79
14612;BME280;7392;52.078;11.650;2023-02-04T12:50:30;103024.91;;;5.32;76.04
14612;BME280;7392;52.078;11.650;2023-02-04T12:52:58;103021.84;;;5.24;76.56
14612;BME280;7392;52.078;11.650;2023-02-04T12:55:27;103024.94;;;5.17;77.24
14612;BME280;7392;52.078;11.650;2023-02-04T12:57:55;103034.19;;;5.09;77.47